This is the latest recevied weather packets stored in our database for station/object OK1FET-5. If no packets are shown the sender has not sent any weather packets the latest 1 day(s).
| Time | Temp. | Humidity | Pressure | Rain* | Wind** | Luminosity | Snow |
|---|---|---|---|---|---|---|---|
| 1777960579 | 16.11° C | 57% | 1009.7 hPa | - | 0.45 m/s, 195° | - | - |
| 1777960285 | 15.56° C | 57% | 1009.7 hPa | - | 0.45 m/s, 324° | - | - |
| 1777959696 | 15° C | 59% | 1009.6 hPa | - | 1.79 m/s, 329° | - | - |
| 1777959402 | 15° C | 58% | 1009.5 hPa | - | 2.68 m/s, 336° | - | - |
| 1777959107 | 15° C | 62% | 1009.4 hPa | - | 2.68 m/s, 333° | - | - |
| 1777958813 | 15.56° C | 59% | 1009.5 hPa | - | 2.24 m/s, 324° | - | - |
| 1777958518 | 15.56° C | 58% | 1009.5 hPa | - | 1.79 m/s, 315° | - | - |
| 1777958224 | 15.56° C | 55% | 1009.6 hPa | - | 1.34 m/s, 315° | - | - |
| 1777958224 | 15.56° C | 55% | 1009.6 hPa | - | 1.34 m/s, 315° | - | - |
| 1777957929 | 16.11° C | 55% | 1009.6 hPa | - | 0.89 m/s, 315° | - | - |
| 1777957635 | 16.11° C | 53% | 1009.6 hPa | - | 0.45 m/s, 318° | - | - |
| 1777957635 | 16.11° C | 53% | 1009.6 hPa | - | 0.45 m/s, 318° | - | - |
| 1777957340 | 16.11° C | 52% | 1009.7 hPa | - | 0 m/s | - | - |
| 1777957046 | 16.11° C | 53% | 1009.6 hPa | - | 0 m/s | - | - |
| 1777957046 | 16.11° C | 53% | 1009.6 hPa | - | 0 m/s | - | - |
| 1777956457 | 15° C | 56% | 1009.6 hPa | - | 0 m/s | - | - |
| 1777956164 | 14.44° C | 57% | 1009.6 hPa | - | 0 m/s | - | - |
| 1777955868 | 14.44° C | 57% | 1009.6 hPa | - | 0.45 m/s, 170° | - | - |
| 1777955574 | 14.44° C | 57% | 1009.6 hPa | - | 0.89 m/s, 142° | - | - |
| 1777955280 | 14.44° C | 57% | 1009.5 hPa | - | 0.89 m/s, 138° | - | - |
| 1777954985 | 14.44° C | 56% | 1009.5 hPa | - | 1.34 m/s, 68° | - | - |
| 1777954691 | 14.44° C | 55% | 1009.5 hPa | - | 1.34 m/s, 27° | - | - |
| 1777954102 | 13.89° C | 55% | 1009.6 hPa | - | 0.89 m/s, 20° | - | - |
| 1777953808 | 13.89° C | 55% | 1009.6 hPa | - | 0.89 m/s, 85° | - | - |
| 1777953220 | 13.89° C | 55% | 1009.6 hPa | - | 0 m/s | - | - |
* Rain since midnight (hover to see other rain measurements)
** Current wind speed in m/s (hover to see current wind gust speed)